KSFF/SFF METAR and TAF weather

Enter ICAO airport designator
Station Type Date Time Source
KSFF METAR 2020/10/29 15:53 UTC NOAA

KSFF 291553Z 21003KT 7SM FEW001 02/01 A3012 RMK AO2 SLP213 T00170006


Station Type Date Time Source
KSFF Decoded METAR 2020/10/29 15:53 UTC NOAA

FELTS FIELD, WA, United States (KSFF) 47-41N 117-19W 609M
Oct 29, 2020 - 11:53 AM EDT / 2020.10.29 1553 UTC
Wind: from the SSW (210 degrees) at 3 MPH (3 KT):0
Visibility: 7 mile(s):0
Sky conditions: mostly clear
Temperature: 35.1 F (1.7 C)
Dew Point: 33.1 F (0.6 C)
Relative Humidity: 92%
Pressure (altimeter): 30.12 in. Hg (1019 hPa)
ob: KSFF 291553Z 21003KT 7SM FEW001 02/01 A3012 RMK AO2 SLP213 T00170006
cycle: 16

Station Type Date Time Source
KSFF TAF 2020/10/29 13:28 UTC NOAA

TAF
AMD KSFF 291326Z 2913/3012 VRB03KT P6SM FEW120 BKN250
TEMPO 2913/2916 1SM BR BKN002
FM291600 14004KT P6SM FEW250
FM300000 06004KT P6SM SKC
FM301000 09005KT P6SM SCT008 BKN040 BKN250

Example: see airport list